createdAt,value
2023-01-22T00:15:51.728Z,20.63
2023-01-22T00:17:53.824Z,18.90
2023-01-22T00:21:57.508Z,17.15
2023-01-22T00:23:59.364Z,18.35
2023-01-22T00:26:02.202Z,16.73
2023-01-22T00:28:04.110Z,16.15
2023-01-22T00:30:06.925Z,17.02
2023-01-22T00:32:08.987Z,17.15
2023-01-22T00:36:18.608Z,14.88
2023-01-22T00:38:20.597Z,15.98
2023-01-22T00:40:22.746Z,18.35
2023-01-22T00:42:24.643Z,16.08
2023-01-22T00:44:26.554Z,16.58
2023-01-22T00:46:28.494Z,17.25
2023-01-22T00:48:30.551Z,16.48
2023-01-22T00:52:34.547Z,16.63
2023-01-22T00:54:36.479Z,18.70
2023-01-22T00:56:38.442Z,18.77
2023-01-22T00:58:40.553Z,17.42
2023-01-22T01:03:02.973Z,18.73
2023-01-22T01:05:05.155Z,18.95
2023-01-22T01:07:07.036Z,16.88
2023-01-22T01:09:09.038Z,18.35
2023-01-22T01:13:17.431Z,17.10
2023-01-22T01:15:19.392Z,18.02
2023-01-22T01:17:21.316Z,22.38
2023-01-22T01:19:23.216Z,18.42
2023-01-22T01:21:25.254Z,20.00
2023-01-22T01:25:29.553Z,19.67
2023-01-22T01:27:32.507Z,21.45
2023-01-22T01:29:34.401Z,19.98
2023-01-22T01:31:37.621Z,19.85
2023-01-22T01:33:39.925Z,21.15
2023-01-22T01:35:41.926Z,20.00
2023-01-22T01:39:45.676Z,20.65
2023-01-22T01:41:47.579Z,19.45
2023-01-22T01:44:07.921Z,22.20
2023-01-22T01:46:20.697Z,21.60
2023-01-22T01:48:33.956Z,22.15
2023-01-22T01:50:39.887Z,22.23
2023-01-22T01:52:41.776Z,21.65
2023-01-22T01:54:47.865Z,22.02
2023-01-22T01:56:53.026Z,22.05
2023-01-22T01:59:03.090Z,21.42
2023-01-22T02:01:15.012Z,23.67
2023-01-22T02:03:17.596Z,21.92
2023-01-22T04:16:05.485Z,17.35
2023-01-22T04:18:07.396Z,19.00
2023-01-22T04:20:10.149Z,21.98
2023-01-22T04:22:12.056Z,24.13
2023-01-22T04:24:13.899Z,25.02
2023-01-22T04:26:15.815Z,25.90
2023-01-22T04:28:19.723Z,25.95
2023-01-22T04:30:22.306Z,29.42
2023-01-22T04:32:24.201Z,27.70
2023-01-22T04:34:26.225Z,36.75
2023-01-22T04:38:31.198Z,34.20
2023-01-22T04:42:35.252Z,25.58
2023-01-22T04:46:38.897Z,26.27
2023-01-22T04:48:40.782Z,29.55
2023-01-22T04:50:43.950Z,25.35
2023-01-22T04:52:47.061Z,24.15
2023-01-22T04:54:49.689Z,21.45
2023-01-22T04:56:51.603Z,22.30
2023-01-22T04:58:53.476Z,23.23
2023-01-22T05:00:58.601Z,25.08
2023-01-22T05:03:02.109Z,21.88
2023-01-22T05:05:05.693Z,22.88
2023-01-22T05:07:07.578Z,20.50
2023-01-22T05:09:09.443Z,24.38
2023-01-22T05:11:11.349Z,19.92
2023-01-22T05:13:13.204Z,21.30
2023-01-22T05:15:24.034Z,12.77
2023-01-22T05:17:26.831Z,17.13
2023-01-22T05:21:30.642Z,17.33
2023-01-22T05:23:32.595Z,16.40
2023-01-22T05:27:36.258Z,15.35
2023-01-22T05:29:38.170Z,16.60
2023-01-22T05:31:40.155Z,18.13
2023-01-22T05:35:44.741Z,15.77
2023-01-22T05:39:48.664Z,17.88
2023-01-22T05:41:50.636Z,20.38
2023-01-22T05:45:54.288Z,19.95
2023-01-22T05:49:58.077Z,18.95
2023-01-22T05:52:00.008Z,18.55
2023-01-22T05:56:05.730Z,17.30
2023-01-22T05:58:08.103Z,16.30
2023-01-22T06:00:10.746Z,15.65
2023-01-22T06:02:12.709Z,15.52
2023-01-22T08:13:45.435Z,39.08
2023-01-22T08:17:53.024Z,31.52
2023-01-22T08:19:56.221Z,36.47
2023-01-22T08:21:58.137Z,34.65
2023-01-22T08:24:00.117Z,41.60
2023-01-22T08:28:06.851Z,33.90
2023-01-22T08:30:11.511Z,31.17
2023-01-22T08:32:13.627Z,30.30
2023-01-22T08:34:16.592Z,26.13
2023-01-22T08:36:18.450Z,24.20
2023-01-22T08:38:20.707Z,23.38
2023-01-22T08:40:22.593Z,23.25
2023-01-22T08:42:24.437Z,20.25
2023-01-22T08:44:26.463Z,20.77
2023-01-22T08:48:30.142Z,18.73
2023-01-22T08:50:32.059Z,15.85
2023-01-22T08:54:35.701Z,16.42
2023-01-22T08:58:39.366Z,19.17
2023-01-22T09:00:41.311Z,18.25
2023-01-22T09:04:45.496Z,19.17
2023-01-22T09:06:47.371Z,16.42
2023-01-22T09:08:49.382Z,18.15
2023-01-22T09:12:53.682Z,15.68
2023-01-22T09:16:57.354Z,19.50
2023-01-22T09:18:59.217Z,18.98
2023-01-22T09:21:01.113Z,17.10
2023-01-22T09:23:02.987Z,17.75
2023-01-22T09:25:05.287Z,20.45
2023-01-22T09:27:09.159Z,19.90
2023-01-22T09:29:11.102Z,19.30
2023-01-22T09:31:13.877Z,19.10
2023-01-22T09:33:16.033Z,21.77
2023-01-22T09:35:17.960Z,22.88
2023-01-22T09:37:20.434Z,22.52
2023-01-22T09:39:22.376Z,21.05
2023-01-22T09:43:37.184Z,21.08
2023-01-22T09:45:40.885Z,23.40
2023-01-22T09:47:51.649Z,25.77
2023-01-22T09:49:58.331Z,26.13
2023-01-22T09:52:03.211Z,27.30
2023-01-22T09:54:08.830Z,27.85
2023-01-22T09:56:41.586Z,24.95
2023-01-22T09:58:43.764Z,26.00
2023-01-22T10:01:00.636Z,22.10
2023-01-22T12:13:57.517Z,31.48
2023-01-22T12:16:04.663Z,32.38
2023-01-22T12:18:28.163Z,30.60
2023-01-22T12:20:44.938Z,25.75
2023-01-22T12:23:06.554Z,26.63
2023-01-22T12:25:32.587Z,25.98
2023-01-22T12:27:40.915Z,28.73
2023-01-22T12:29:53.267Z,31.70
2023-01-22T12:32:11.038Z,27.67
2023-01-22T12:34:49.941Z,34.08
2023-01-22T12:36:54.399Z,25.35
2023-01-22T12:39:27.400Z,23.63
2023-01-22T12:42:06.862Z,16.73
2023-01-22T12:44:21.893Z,21.75
2023-01-22T12:46:35.897Z,17.48
2023-01-22T12:49:10.102Z,16.10
2023-01-22T12:51:42.816Z,17.42
2023-01-22T12:53:44.753Z,15.07
2023-01-22T12:57:59.586Z,12.68
2023-01-22T13:00:12.187Z,19.08
2023-01-22T13:02:35.899Z,14.32
2023-01-22T13:04:37.855Z,13.25
2023-01-22T13:08:45.401Z,9.70
2023-01-22T13:10:55.275Z,16.98
2023-01-22T13:13:03.986Z,14.27
2023-01-22T13:15:12.258Z,13.63
2023-01-22T13:17:27.560Z,17.48
2023-01-22T13:19:50.740Z,16.17
2023-01-22T13:21:53.684Z,20.83
2023-01-22T13:24:04.745Z,24.48
2023-01-22T13:26:06.727Z,25.60
2023-01-22T13:30:35.427Z,11.43
2023-01-22T13:32:37.487Z,16.60
2023-01-22T13:36:50.080Z,12.63
2023-01-22T13:38:58.623Z,13.95
2023-01-22T13:41:15.033Z,18.83
2023-01-22T13:43:19.676Z,14.70
2023-01-22T13:45:34.105Z,21.65
2023-01-22T13:47:36.339Z,21.23
2023-01-22T13:49:46.351Z,22.52
2023-01-22T13:51:49.274Z,17.08
2023-01-22T13:53:54.815Z,20.77
2023-01-22T13:55:57.851Z,10.57
2023-01-22T13:58:05.278Z,14.10
2023-01-22T14:00:27.049Z,19.23
2023-01-22T16:13:59.344Z,13.93
2023-01-22T16:16:07.866Z,14.95
2023-01-22T16:18:09.772Z,15.90
2023-01-22T16:20:12.005Z,9.40
2023-01-22T16:22:14.003Z,13.93
2023-01-22T16:26:22.061Z,12.32
2023-01-22T16:28:24.530Z,14.20
2023-01-22T16:30:26.620Z,9.95
2023-01-22T16:32:28.591Z,18.63
2023-01-22T16:36:33.365Z,23.63
2023-01-22T16:38:37.096Z,22.27
2023-01-22T16:40:39.691Z,28.20
2023-01-22T16:42:59.628Z,26.27
2023-01-22T16:45:02.963Z,24.58
2023-01-22T16:47:04.893Z,34.30
2023-01-22T16:49:14.658Z,31.58
2023-01-22T16:51:19.452Z,26.10
2023-01-22T16:53:21.341Z,27.00
2023-01-22T16:55:24.086Z,22.10
2023-01-22T16:57:26.206Z,20.27
2023-01-22T16:59:28.535Z,17.15
2023-01-22T17:01:40.124Z,17.85
2023-01-22T17:03:43.202Z,19.17
2023-01-22T17:05:48.909Z,23.42
2023-01-22T17:07:51.062Z,18.38
2023-01-22T17:09:53.163Z,22.02
2023-01-22T17:12:00.861Z,21.83
2023-01-22T17:14:02.752Z,21.75
2023-01-22T17:16:05.403Z,18.65
2023-01-22T17:18:07.424Z,19.17
2023-01-22T17:22:14.763Z,17.38
2023-01-22T17:26:18.908Z,18.20
2023-01-22T17:30:24.341Z,16.13
2023-01-22T17:36:31.339Z,17.85
2023-01-22T17:38:38.327Z,16.75
2023-01-22T17:40:40.970Z,17.23
2023-01-22T17:44:45.028Z,13.38
2023-01-22T17:46:49.228Z,19.85
2023-01-22T17:48:52.102Z,15.15
2023-01-22T17:50:54.121Z,19.63
2023-01-22T17:52:56.095Z,19.73
2023-01-22T17:56:59.948Z,10.95
2023-01-22T17:59:04.514Z,13.45
2023-01-22T20:14:08.300Z,21.65
2023-01-22T20:18:25.136Z,22.73
2023-01-22T20:20:27.417Z,21.40
2023-01-22T20:22:29.442Z,14.60
2023-01-22T20:26:33.727Z,20.65
2023-01-22T20:28:36.172Z,20.95
2023-01-22T20:30:38.330Z,19.67
2023-01-22T20:32:40.357Z,9.82
2023-01-22T20:36:47.654Z,12.70
2023-01-22T20:38:52.829Z,15.02
2023-01-22T20:40:55.634Z,18.98
2023-01-22T20:42:57.566Z,18.23
2023-01-22T20:44:59.663Z,20.15
2023-01-22T20:47:01.830Z,14.45
2023-01-22T20:49:03.748Z,15.75
2023-01-22T20:51:10.174Z,19.27
2023-01-22T20:53:12.255Z,17.73
2023-01-22T20:55:15.721Z,17.50
2023-01-22T20:57:19.703Z,14.40
2023-01-22T20:59:23.618Z,16.23
2023-01-22T21:01:26.492Z,20.33
2023-01-22T21:03:28.491Z,15.55
2023-01-22T21:07:32.624Z,16.60
2023-01-22T21:09:35.302Z,19.20
2023-01-22T21:11:40.250Z,20.90
2023-01-22T21:13:43.904Z,17.33
2023-01-22T21:15:46.362Z,19.60
2023-01-22T21:17:49.157Z,17.17
2023-01-22T21:19:52.034Z,16.42
2023-01-22T21:21:55.498Z,13.15
2023-01-22T21:23:58.090Z,14.57
2023-01-22T21:26:09.331Z,19.95
2023-01-22T21:28:11.240Z,18.40
2023-01-22T21:30:13.367Z,15.70
2023-01-22T21:32:15.462Z,19.08
2023-01-22T21:34:22.884Z,16.00
2023-01-22T21:36:25.029Z,18.20
2023-01-22T21:38:27.306Z,17.00
2023-01-22T21:40:30.812Z,19.15
2023-01-22T21:42:51.221Z,19.13
2023-01-22T21:45:11.739Z,14.35
2023-01-22T21:47:13.633Z,12.40
2023-01-22T21:49:18.587Z,11.60
2023-01-22T21:51:21.609Z,13.20
2023-01-22T21:53:23.752Z,15.30
2023-01-22T21:55:25.663Z,16.45
2023-01-22T21:57:29.387Z,10.43
2023-01-22T21:59:32.816Z,14.35
